Moretown, Vermont
Current Conditions -  °F | °C
As of 9:10 AM on Tuesday 21 Oct 2014 (Local Time) from KMPV Reporting Station
Light Rain Light Rain  
Wind Chill: 42°   Ceiling: 6500
Heat Index: 42°   Visibility: 6mi
Dew Point: 41°   Wind: 0mph
Humidity: 96%   Direction: NA
Pressure: 30.02"   Gusts: NA
Location:  44.25°N, 72.76°W
Report Text: KMPV 211310Z AUTO 00000KT 6SM -RA BR SCT003 OVC065 06/05 A3002 RMK AO2 P0000 T00560050 $
Loading
Personal Weather Stations






























Interactive Weather Map
Tropical Storm Tracking
New forecast layout! Learn more

10-Day Weather Forecast

Advertisements
Track Severe Weather on mobile